sensor_id;sensor_type;location;lat;lon;timestamp;temperature;humidity
47590;DHT22;33316;52.298;9.056;2022-11-12T00:00:38;9.50;72.70
47590;DHT22;33316;52.298;9.056;2022-11-12T00:03:05;9.50;72.80
47590;DHT22;33316;52.298;9.056;2022-11-12T00:05:32;9.50;72.80
47590;DHT22;33316;52.298;9.056;2022-11-12T00:08:00;9.50;72.80
47590;DHT22;33316;52.298;9.056;2022-11-12T00:10:26;9.50;72.80
47590;DHT22;33316;52.298;9.056;2022-11-12T00:12:54;9.50;72.70
47590;DHT22;33316;52.298;9.056;2022-11-12T00:15:22;9.40;72.80
47590;DHT22;33316;52.298;9.056;2022-11-12T00:17:49;9.40;72.90
47590;DHT22;33316;52.298;9.056;2022-11-12T00:20:16;9.30;73.10
47590;DHT22;33316;52.298;9.056;2022-11-12T00:22:43;9.20;73.40
47590;DHT22;33316;52.298;9.056;2022-11-12T00:25:10;9.20;73.60
47590;DHT22;33316;52.298;9.056;2022-11-12T00:27:37;9.10;73.60
47590;DHT22;33316;52.298;9.056;2022-11-12T00:30:04;9.10;73.70
47590;DHT22;33316;52.298;9.056;2022-11-12T00:32:34;9.00;73.80
47590;DHT22;33316;52.298;9.056;2022-11-12T00:35:01;9.00;74.00
47590;DHT22;33316;52.298;9.056;2022-11-12T00:37:28;9.00;74.20
47590;DHT22;33316;52.298;9.056;2022-11-12T00:39:55;9.00;74.30
47590;DHT22;33316;52.298;9.056;2022-11-12T00:42:21;9.00;74.50
47590;DHT22;33316;52.298;9.056;2022-11-12T00:44:48;9.00;74.60
47590;DHT22;33316;52.298;9.056;2022-11-12T00:47:15;9.00;74.60
47590;DHT22;33316;52.298;9.056;2022-11-12T00:49:43;9.00;74.60
47590;DHT22;33316;52.298;9.056;2022-11-12T00:52:10;9.00;74.50
47590;DHT22;33316;52.298;9.056;2022-11-12T00:54:37;9.00;74.50
47590;DHT22;33316;52.298;9.056;2022-11-12T00:57:03;9.00;74.40
47590;DHT22;33316;52.298;9.056;2022-11-12T00:59:30;9.00;74.50
47590;DHT22;33316;52.298;9.056;2022-11-12T01:01:57;9.00;74.60
47590;DHT22;33316;52.298;9.056;2022-11-12T01:04:23;8.90;74.50
47590;DHT22;33316;52.298;9.056;2022-11-12T01:06:52;8.90;74.40
47590;DHT22;33316;52.298;9.056;2022-11-12T01:09:18;8.90;74.50
47590;DHT22;33316;52.298;9.056;2022-11-12T01:11:45;8.80;74.40
47590;DHT22;33316;52.298;9.056;2022-11-12T01:14:12;8.80;74.60
47590;DHT22;33316;52.298;9.056;2022-11-12T01:16:39;8.70;74.60
47590;DHT22;33316;52.298;9.056;2022-11-12T01:19:09;8.70;74.60
47590;DHT22;33316;52.298;9.056;2022-11-12T01:21:38;8.60;74.50
47590;DHT22;33316;52.298;9.056;2022-11-12T01:24:07;8.50;74.60
47590;DHT22;33316;52.298;9.056;2022-11-12T01:26:35;8.50;74.70
47590;DHT22;33316;52.298;9.056;2022-11-12T01:29:02;8.50;74.80
47590;DHT22;33316;52.298;9.056;2022-11-12T01:31:30;8.40;74.90
47590;DHT22;33316;52.298;9.056;2022-11-12T01:34:00;8.40;75.10
47590;DHT22;33316;52.298;9.056;2022-11-12T01:36:30;8.30;75.20
47590;DHT22;33316;52.298;9.056;2022-11-12T01:38:57;8.30;75.40
47590;DHT22;33316;52.298;9.056;2022-11-12T01:41:27;8.30;75.50
47590;DHT22;33316;52.298;9.056;2022-11-12T01:44:13;8.30;75.60
47590;DHT22;33316;52.298;9.056;2022-11-12T01:46:56;8.20;75.70
47590;DHT22;33316;52.298;9.056;2022-11-12T01:49:27;8.20;75.70
47590;DHT22;33316;52.298;9.056;2022-11-12T01:51:58;8.20;75.60
47590;DHT22;33316;52.298;9.056;2022-11-12T01:54:30;8.20;75.50
47590;DHT22;33316;52.298;9.056;2022-11-12T01:56:58;8.10;75.40
47590;DHT22;33316;52.298;9.056;2022-11-12T01:59:30;8.10;75.50
47590;DHT22;33316;52.298;9.056;2022-11-12T02:01:59;8.00;75.60
47590;DHT22;33316;52.298;9.056;2022-11-12T02:04:26;8.00;75.70
47590;DHT22;33316;52.298;9.056;2022-11-12T02:06:55;8.00;75.90
47590;DHT22;33316;52.298;9.056;2022-11-12T02:09:23;7.90;76.10
47590;DHT22;33316;52.298;9.056;2022-11-12T02:11:50;8.00;76.40
47590;DHT22;33316;52.298;9.056;2022-11-12T02:14:18;8.00;76.40
47590;DHT22;33316;52.298;9.056;2022-11-12T02:16:45;8.00;76.40
47590;DHT22;33316;52.298;9.056;2022-11-12T02:19:14;8.00;76.30
47590;DHT22;33316;52.298;9.056;2022-11-12T02:21:43;8.00;76.30
47590;DHT22;33316;52.298;9.056;2022-11-12T02:24:34;7.90;76.20
47590;DHT22;33316;52.298;9.056;2022-11-12T02:27:03;7.90;76.50
47590;DHT22;33316;52.298;9.056;2022-11-12T02:29:31;8.00;76.40
47590;DHT22;33316;52.298;9.056;2022-11-12T02:31:58;7.90;76.40
47590;DHT22;33316;52.298;9.056;2022-11-12T02:34:25;7.90;76.40
47590;DHT22;33316;52.298;9.056;2022-11-12T02:36:53;7.90;76.50
47590;DHT22;33316;52.298;9.056;2022-11-12T02:39:19;7.90;76.80
47590;DHT22;33316;52.298;9.056;2022-11-12T02:41:46;7.90;76.90
47590;DHT22;33316;52.298;9.056;2022-11-12T02:44:13;7.80;76.80
47590;DHT22;33316;52.298;9.056;2022-11-12T02:46:40;7.80;76.80
47590;DHT22;33316;52.298;9.056;2022-11-12T02:49:06;7.80;76.70
47590;DHT22;33316;52.298;9.056;2022-11-12T02:51:33;7.80;76.60
47590;DHT22;33316;52.298;9.056;2022-11-12T02:54:01;7.80;76.60
47590;DHT22;33316;52.298;9.056;2022-11-12T02:56:28;7.70;76.90
47590;DHT22;33316;52.298;9.056;2022-11-12T02:58:55;7.70;77.30
47590;DHT22;33316;52.298;9.056;2022-11-12T03:01:22;7.70;77.60
47590;DHT22;33316;52.298;9.056;2022-11-12T03:03:48;7.70;77.80
47590;DHT22;33316;52.298;9.056;2022-11-12T03:06:16;7.70;78.00
47590;DHT22;33316;52.298;9.056;2022-11-12T03:08:43;7.70;77.90
47590;DHT22;33316;52.298;9.056;2022-11-12T03:11:13;7.70;77.90
47590;DHT22;33316;52.298;9.056;2022-11-12T03:13:40;7.70;78.00
47590;DHT22;33316;52.298;9.056;2022-11-12T03:16:07;7.70;77.70
47590;DHT22;33316;52.298;9.056;2022-11-12T03:18:34;7.70;77.70
47590;DHT22;33316;52.298;9.056;2022-11-12T03:21:01;7.70;77.70
47590;DHT22;33316;52.298;9.056;2022-11-12T03:23:28;7.70;77.80
47590;DHT22;33316;52.298;9.056;2022-11-12T03:25:55;7.70;77.90
47590;DHT22;33316;52.298;9.056;2022-11-12T03:28:23;7.70;78.00
47590;DHT22;33316;52.298;9.056;2022-11-12T03:30:50;7.70;78.00
47590;DHT22;33316;52.298;9.056;2022-11-12T03:33:17;7.70;78.10
47590;DHT22;33316;52.298;9.056;2022-11-12T03:35:44;7.70;78.20
47590;DHT22;33316;52.298;9.056;2022-11-12T03:38:10;7.70;78.30
47590;DHT22;33316;52.298;9.056;2022-11-12T03:40:37;7.70;78.30
47590;DHT22;33316;52.298;9.056;2022-11-12T03:43:04;7.80;78.30
47590;DHT22;33316;52.298;9.056;2022-11-12T03:45:32;7.70;78.30
47590;DHT22;33316;52.298;9.056;2022-11-12T03:47:59;7.70;78.40
47590;DHT22;33316;52.298;9.056;2022-11-12T03:50:28;7.70;78.30
47590;DHT22;33316;52.298;9.056;2022-11-12T03:52:56;7.70;78.20
47590;DHT22;33316;52.298;9.056;2022-11-12T03:55:26;7.70;78.20
47590;DHT22;33316;52.298;9.056;2022-11-12T03:57:53;7.70;78.30
47590;DHT22;33316;52.298;9.056;2022-11-12T04:00:21;7.70;78.40
47590;DHT22;33316;52.298;9.056;2022-11-12T04:02:49;7.70;78.50
47590;DHT22;33316;52.298;9.056;2022-11-12T04:05:16;7.60;78.60
47590;DHT22;33316;52.298;9.056;2022-11-12T04:08:03;7.60;78.60
47590;DHT22;33316;52.298;9.056;2022-11-12T04:10:48;7.60;78.80
47590;DHT22;33316;52.298;9.056;2022-11-12T04:13:15;7.60;78.60
47590;DHT22;33316;52.298;9.056;2022-11-12T04:15:53;7.60;78.60
47590;DHT22;33316;52.298;9.056;2022-11-12T04:18:39;7.60;78.60
47590;DHT22;33316;52.298;9.056;2022-11-12T04:21:27;7.60;78.50
47590;DHT22;33316;52.298;9.056;2022-11-12T04:24:12;7.60;78.60
47590;DHT22;33316;52.298;9.056;2022-11-12T04:26:59;7.60;78.60
47590;DHT22;33316;52.298;9.056;2022-11-12T04:29:25;7.50;78.50
47590;DHT22;33316;52.298;9.056;2022-11-12T04:32:09;7.50;78.80
47590;DHT22;33316;52.298;9.056;2022-11-12T04:34:38;7.50;79.00
47590;DHT22;33316;52.298;9.056;2022-11-12T04:37:05;7.50;79.20
47590;DHT22;33316;52.298;9.056;2022-11-12T04:39:32;7.60;79.30
47590;DHT22;33316;52.298;9.056;2022-11-12T04:41:59;7.60;79.30
47590;DHT22;33316;52.298;9.056;2022-11-12T04:44:43;7.60;79.40
47590;DHT22;33316;52.298;9.056;2022-11-12T04:47:27;7.60;79.60
47590;DHT22;33316;52.298;9.056;2022-11-12T04:49:56;7.60;79.50
47590;DHT22;33316;52.298;9.056;2022-11-12T04:52:23;7.60;79.40
47590;DHT22;33316;52.298;9.056;2022-11-12T04:54:50;7.50;79.40
47590;DHT22;33316;52.298;9.056;2022-11-12T04:57:17;7.50;79.20
47590;DHT22;33316;52.298;9.056;2022-11-12T04:59:44;7.40;78.80
47590;DHT22;33316;52.298;9.056;2022-11-12T05:02:11;7.40;78.90
47590;DHT22;33316;52.298;9.056;2022-11-12T05:04:38;7.30;78.90
47590;DHT22;33316;52.298;9.056;2022-11-12T05:07:06;7.30;79.00
47590;DHT22;33316;52.298;9.056;2022-11-12T05:09:33;7.30;78.80
47590;DHT22;33316;52.298;9.056;2022-11-12T05:12:00;7.30;78.80
47590;DHT22;33316;52.298;9.056;2022-11-12T05:14:27;7.30;78.80
47590;DHT22;33316;52.298;9.056;2022-11-12T05:16:54;7.30;78.90
47590;DHT22;33316;52.298;9.056;2022-11-12T05:19:21;7.20;78.80
47590;DHT22;33316;52.298;9.056;2022-11-12T05:21:47;7.20;78.80
47590;DHT22;33316;52.298;9.056;2022-11-12T05:24:38;7.20;78.90
47590;DHT22;33316;52.298;9.056;2022-11-12T05:27:08;7.20;78.90
47590;DHT22;33316;52.298;9.056;2022-11-12T05:29:35;7.10;78.80
47590;DHT22;33316;52.298;9.056;2022-11-12T05:32:03;7.10;79.00
47590;DHT22;33316;52.298;9.056;2022-11-12T05:34:30;7.10;79.10
47590;DHT22;33316;52.298;9.056;2022-11-12T05:36:57;7.00;79.00
47590;DHT22;33316;52.298;9.056;2022-11-12T05:39:24;7.00;79.20
47590;DHT22;33316;52.298;9.056;2022-11-12T05:41:52;7.00;79.60
47590;DHT22;33316;52.298;9.056;2022-11-12T05:44:19;6.90;79.60
47590;DHT22;33316;52.298;9.056;2022-11-12T05:46:46;6.90;79.60
47590;DHT22;33316;52.298;9.056;2022-11-12T05:49:13;6.90;79.80
47590;DHT22;33316;52.298;9.056;2022-11-12T05:51:40;6.90;79.80
47590;DHT22;33316;52.298;9.056;2022-11-12T05:54:07;6.90;79.60
47590;DHT22;33316;52.298;9.056;2022-11-12T05:56:34;6.80;79.40
47590;DHT22;33316;52.298;9.056;2022-11-12T05:59:03;6.80;79.40
47590;DHT22;33316;52.298;9.056;2022-11-12T06:01:31;6.70;79.40
47590;DHT22;33316;52.298;9.056;2022-11-12T06:03:57;6.70;79.30
47590;DHT22;33316;52.298;9.056;2022-11-12T06:06:24;6.70;79.10
47590;DHT22;33316;52.298;9.056;2022-11-12T06:08:51;6.60;79.10
47590;DHT22;33316;52.298;9.056;2022-11-12T06:11:18;6.50;79.10
47590;DHT22;33316;52.298;9.056;2022-11-12T06:13:45;6.50;79.10
47590;DHT22;33316;52.298;9.056;2022-11-12T06:16:13;6.50;79.10
47590;DHT22;33316;52.298;9.056;2022-11-12T06:18:39;6.50;79.10
47590;DHT22;33316;52.298;9.056;2022-11-12T06:21:08;6.50;79.00
47590;DHT22;33316;52.298;9.056;2022-11-12T06:23:48;6.40;78.90
47590;DHT22;33316;52.298;9.056;2022-11-12T06:26:16;6.40;79.10
47590;DHT22;33316;52.298;9.056;2022-11-12T06:28:43;6.40;78.80
47590;DHT22;33316;52.298;9.056;2022-11-12T06:31:09;6.40;79.10
47590;DHT22;33316;52.298;9.056;2022-11-12T06:33:37;6.40;79.20
47590;DHT22;33316;52.298;9.056;2022-11-12T06:36:05;6.30;79.40
47590;DHT22;33316;52.298;9.056;2022-11-12T06:38:34;6.20;79.50
47590;DHT22;33316;52.298;9.056;2022-11-12T06:41:01;6.20;79.60
47590;DHT22;33316;52.298;9.056;2022-11-12T06:43:30;6.20;79.60
47590;DHT22;33316;52.298;9.056;2022-11-12T06:46:00;6.20;79.70
47590;DHT22;33316;52.298;9.056;2022-11-12T06:48:28;6.20;79.80
47590;DHT22;33316;52.298;9.056;2022-11-12T06:50:57;6.20;79.80
47590;DHT22;33316;52.298;9.056;2022-11-12T06:53:24;6.20;79.80
47590;DHT22;33316;52.298;9.056;2022-11-12T06:55:51;6.10;79.60
47590;DHT22;33316;52.298;9.056;2022-11-12T06:58:18;6.10;79.60
47590;DHT22;33316;52.298;9.056;2022-11-12T07:00:44;6.10;79.50
47590;DHT22;33316;52.298;9.056;2022-11-12T07:03:12;6.10;79.50
47590;DHT22;33316;52.298;9.056;2022-11-12T07:05:40;6.00;79.50
47590;DHT22;33316;52.298;9.056;2022-11-12T07:08:08;6.00;79.70
47590;DHT22;33316;52.298;9.056;2022-11-12T07:10:35;6.00;79.80
47590;DHT22;33316;52.298;9.056;2022-11-12T07:13:02;6.00;79.90
47590;DHT22;33316;52.298;9.056;2022-11-12T07:15:29;6.00;80.00
47590;DHT22;33316;52.298;9.056;2022-11-12T07:17:55;6.00;80.00
47590;DHT22;33316;52.298;9.056;2022-11-12T07:20:22;6.00;80.00
47590;DHT22;33316;52.298;9.056;2022-11-12T07:22:49;6.00;80.00
47590;DHT22;33316;52.298;9.056;2022-11-12T07:25:17;6.00;80.00
47590;DHT22;33316;52.298;9.056;2022-11-12T07:27:44;6.00;79.80
47590;DHT22;33316;52.298;9.056;2022-11-12T07:30:11;5.90;79.80
47590;DHT22;33316;52.298;9.056;2022-11-12T07:32:38;6.00;80.00
47590;DHT22;33316;52.298;9.056;2022-11-12T07:35:06;6.00;80.00
47590;DHT22;33316;52.298;9.056;2022-11-12T07:37:33;6.00;80.10
47590;DHT22;33316;52.298;9.056;2022-11-12T07:40:00;5.90;80.10
47590;DHT22;33316;52.298;9.056;2022-11-12T07:42:31;6.00;80.40
47590;DHT22;33316;52.298;9.056;2022-11-12T07:44:58;6.00;80.50
47590;DHT22;33316;52.298;9.056;2022-11-12T07:47:25;6.00;80.40
47590;DHT22;33316;52.298;9.056;2022-11-12T07:49:51;6.00;80.50
47590;DHT22;33316;52.298;9.056;2022-11-12T07:52:18;6.00;80.50
47590;DHT22;33316;52.298;9.056;2022-11-12T07:54:45;6.10;80.60
47590;DHT22;33316;52.298;9.056;2022-11-12T07:57:12;6.10;80.60
47590;DHT22;33316;52.298;9.056;2022-11-12T07:59:40;6.10;80.60
47590;DHT22;33316;52.298;9.056;2022-11-12T08:02:07;6.10;80.80
47590;DHT22;33316;52.298;9.056;2022-11-12T08:04:34;6.10;80.80
47590;DHT22;33316;52.298;9.056;2022-11-12T08:07:01;6.10;80.70
47590;DHT22;33316;52.298;9.056;2022-11-12T08:09:28;6.20;80.80
47590;DHT22;33316;52.298;9.056;2022-11-12T08:11:55;6.20;80.80
47590;DHT22;33316;52.298;9.056;2022-11-12T08:14:21;6.20;80.80
47590;DHT22;33316;52.298;9.056;2022-11-12T08:16:50;6.20;80.80
47590;DHT22;33316;52.298;9.056;2022-11-12T08:19:17;6.20;80.70
47590;DHT22;33316;52.298;9.056;2022-11-12T08:21:44;6.20;80.80
47590;DHT22;33316;52.298;9.056;2022-11-12T08:24:11;6.20;80.80
47590;DHT22;33316;52.298;9.056;2022-11-12T08:26:37;6.20;80.80
47590;DHT22;33316;52.298;9.056;2022-11-12T08:29:04;6.20;80.80
47590;DHT22;33316;52.298;9.056;2022-11-12T08:31:31;6.20;80.70
47590;DHT22;33316;52.298;9.056;2022-11-12T08:33:59;6.20;80.70
47590;DHT22;33316;52.298;9.056;2022-11-12T08:36:36;6.20;80.60
47590;DHT22;33316;52.298;9.056;2022-11-12T08:39:03;6.20;80.60
47590;DHT22;33316;52.298;9.056;2022-11-12T08:41:30;6.20;80.60
47590;DHT22;33316;52.298;9.056;2022-11-12T08:43:57;6.20;80.60
47590;DHT22;33316;52.298;9.056;2022-11-12T08:46:23;6.20;80.80
47590;DHT22;33316;52.298;9.056;2022-11-12T08:48:50;6.20;80.90
47590;DHT22;33316;52.298;9.056;2022-11-12T08:51:18;6.20;80.80
47590;DHT22;33316;52.298;9.056;2022-11-12T08:53:45;6.20;80.80
47590;DHT22;33316;52.298;9.056;2022-11-12T08:56:12;6.30;81.00
47590;DHT22;33316;52.298;9.056;2022-11-12T08:58:38;6.30;81.10
47590;DHT22;33316;52.298;9.056;2022-11-12T09:01:08;6.40;81.20
47590;DHT22;33316;52.298;9.056;2022-11-12T09:03:35;6.40;81.20
47590;DHT22;33316;52.298;9.056;2022-11-12T09:06:03;6.50;81.20
47590;DHT22;33316;52.298;9.056;2022-11-12T09:08:34;6.50;81.30
47590;DHT22;33316;52.298;9.056;2022-11-12T09:11:02;6.50;81.40
47590;DHT22;33316;52.298;9.056;2022-11-12T09:13:29;6.50;81.40
47590;DHT22;33316;52.298;9.056;2022-11-12T09:15:59;6.60;81.50
47590;DHT22;33316;52.298;9.056;2022-11-12T09:18:27;6.60;81.50
47590;DHT22;33316;52.298;9.056;2022-11-12T09:20:58;6.60;81.50
47590;DHT22;33316;52.298;9.056;2022-11-12T09:23:28;6.70;81.50
47590;DHT22;33316;52.298;9.056;2022-11-12T09:25:57;6.70;81.40
47590;DHT22;33316;52.298;9.056;2022-11-12T09:28:23;6.60;81.40
47590;DHT22;33316;52.298;9.056;2022-11-12T09:30:52;6.70;81.50
47590;DHT22;33316;52.298;9.056;2022-11-12T09:33:21;6.70;81.50
47590;DHT22;33316;52.298;9.056;2022-11-12T09:35:49;6.70;81.50
47590;DHT22;33316;52.298;9.056;2022-11-12T09:38:17;6.70;81.50
47590;DHT22;33316;52.298;9.056;2022-11-12T09:41:12;6.80;81.60
47590;DHT22;33316;52.298;9.056;2022-11-12T09:43:43;6.80;81.70
47590;DHT22;33316;52.298;9.056;2022-11-12T09:46:23;6.80;81.70
47590;DHT22;33316;52.298;9.056;2022-11-12T09:48:53;6.80;81.70
47590;DHT22;33316;52.298;9.056;2022-11-12T09:51:24;6.90;81.70
47590;DHT22;33316;52.298;9.056;2022-11-12T09:53:54;6.90;81.70
47590;DHT22;33316;52.298;9.056;2022-11-12T09:56:23;7.00;81.70
47590;DHT22;33316;52.298;9.056;2022-11-12T09:58:51;7.00;81.70
47590;DHT22;33316;52.298;9.056;2022-11-12T10:01:21;7.10;81.80
47590;DHT22;33316;52.298;9.056;2022-11-12T10:03:55;7.20;82.00
47590;DHT22;33316;52.298;9.056;2022-11-12T10:06:31;7.20;82.00
47590;DHT22;33316;52.298;9.056;2022-11-12T10:09:04;7.30;82.00
47590;DHT22;33316;52.298;9.056;2022-11-12T10:11:57;7.30;81.80
47590;DHT22;33316;52.298;9.056;2022-11-12T10:15:04;7.40;81.80
47590;DHT22;33316;52.298;9.056;2022-11-12T10:17:52;7.50;81.50
47590;DHT22;33316;52.298;9.056;2022-11-12T10:20:26;7.60;81.40
47590;DHT22;33316;52.298;9.056;2022-11-12T10:23:08;7.60;81.70
47590;DHT22;33316;52.298;9.056;2022-11-12T10:25:38;7.70;82.00
47590;DHT22;33316;52.298;9.056;2022-11-12T10:28:20;7.80;82.20
47590;DHT22;33316;52.298;9.056;2022-11-12T10:30:49;7.80;82.50
47590;DHT22;33316;52.298;9.056;2022-11-12T10:33:16;7.80;82.70
47590;DHT22;33316;52.298;9.056;2022-11-12T10:35:43;7.90;82.70
47590;DHT22;33316;52.298;9.056;2022-11-12T10:38:24;8.00;82.80
47590;DHT22;33316;52.298;9.056;2022-11-12T10:40:52;8.00;83.10
47590;DHT22;33316;52.298;9.056;2022-11-12T10:43:22;8.10;83.50
47590;DHT22;33316;52.298;9.056;2022-11-12T10:45:49;8.10;83.70
47590;DHT22;33316;52.298;9.056;2022-11-12T10:48:22;8.20;83.60
47590;DHT22;33316;52.298;9.056;2022-11-12T10:50:51;8.20;83.60
47590;DHT22;33316;52.298;9.056;2022-11-12T10:53:31;8.30;83.80
47590;DHT22;33316;52.298;9.056;2022-11-12T10:55:59;8.30;84.20
47590;DHT22;33316;52.298;9.056;2022-11-12T10:58:28;8.40;84.20
47590;DHT22;33316;52.298;9.056;2022-11-12T11:00:58;8.50;84.30
47590;DHT22;33316;52.298;9.056;2022-11-12T11:03:27;8.50;84.20
47590;DHT22;33316;52.298;9.056;2022-11-12T11:05:58;8.60;84.20
47590;DHT22;33316;52.298;9.056;2022-11-12T11:08:40;8.70;84.30
47590;DHT22;33316;52.298;9.056;2022-11-12T11:11:18;8.70;84.40
47590;DHT22;33316;52.298;9.056;2022-11-12T11:13:47;8.80;84.40
47590;DHT22;33316;52.298;9.056;2022-11-12T11:16:15;8.80;84.20
47590;DHT22;33316;52.298;9.056;2022-11-12T11:18:47;8.90;84.10
47590;DHT22;33316;52.298;9.056;2022-11-12T11:21:30;8.90;84.00
47590;DHT22;33316;52.298;9.056;2022-11-12T11:24:06;9.00;84.10
47590;DHT22;33316;52.298;9.056;2022-11-12T11:26:46;9.00;84.00
47590;DHT22;33316;52.298;9.056;2022-11-12T11:29:31;9.10;83.90
47590;DHT22;33316;52.298;9.056;2022-11-12T11:32:06;9.20;84.10
47590;DHT22;33316;52.298;9.056;2022-11-12T11:34:41;9.30;83.90
47590;DHT22;33316;52.298;9.056;2022-11-12T11:37:21;9.30;83.80
47590;DHT22;33316;52.298;9.056;2022-11-12T11:39:58;9.30;83.80
47590;DHT22;33316;52.298;9.056;2022-11-12T11:42:43;9.40;84.60
47590;DHT22;33316;52.298;9.056;2022-11-12T11:45:24;9.50;84.00
47590;DHT22;33316;52.298;9.056;2022-11-12T11:47:53;9.50;83.70
47590;DHT22;33316;52.298;9.056;2022-11-12T11:50:26;9.60;83.70
47590;DHT22;33316;52.298;9.056;2022-11-12T11:53:08;9.70;83.90
47590;DHT22;33316;52.298;9.056;2022-11-12T11:55:50;9.70;84.00
47590;DHT22;33316;52.298;9.056;2022-11-12T11:58:42;9.80;83.80
47590;DHT22;33316;52.298;9.056;2022-11-12T12:01:19;9.80;83.80
47590;DHT22;33316;52.298;9.056;2022-11-12T12:04:12;9.90;83.80
47590;DHT22;33316;52.298;9.056;2022-11-12T12:06:56;9.90;83.70
47590;DHT22;33316;52.298;9.056;2022-11-12T12:09:32;10.00;83.50
47590;DHT22;33316;52.298;9.056;2022-11-12T12:12:05;10.10;83.40
47590;DHT22;33316;52.298;9.056;2022-11-12T12:14:43;10.10;83.50
47590;DHT22;33316;52.298;9.056;2022-11-12T12:17:26;10.20;83.60
47590;DHT22;33316;52.298;9.056;2022-11-12T12:20:02;10.20;83.50
47590;DHT22;33316;52.298;9.056;2022-11-12T12:22:35;10.30;83.40
47590;DHT22;33316;52.298;9.056;2022-11-12T12:25:10;10.30;83.30
47590;DHT22;33316;52.298;9.056;2022-11-12T12:27:44;10.40;83.20
47590;DHT22;33316;52.298;9.056;2022-11-12T12:30:18;10.40;83.20
47590;DHT22;33316;52.298;9.056;2022-11-12T12:32:52;10.50;83.00
47590;DHT22;33316;52.298;9.056;2022-11-12T12:35:24;10.50;82.90
47590;DHT22;33316;52.298;9.056;2022-11-12T12:37:56;10.50;82.90
47590;DHT22;33316;52.298;9.056;2022-11-12T12:40:31;10.60;83.00
47590;DHT22;33316;52.298;9.056;2022-11-12T12:43:03;10.70;82.90
47590;DHT22;33316;52.298;9.056;2022-11-12T12:45:39;10.70;82.70
47590;DHT22;33316;52.298;9.056;2022-11-12T12:48:12;10.70;82.70
47590;DHT22;33316;52.298;9.056;2022-11-12T12:50:40;10.80;83.00
47590;DHT22;33316;52.298;9.056;2022-11-12T12:53:16;10.80;83.10
47590;DHT22;33316;52.298;9.056;2022-11-12T12:55:44;10.80;83.00
47590;DHT22;33316;52.298;9.056;2022-11-12T12:58:17;10.90;82.90
47590;DHT22;33316;52.298;9.056;2022-11-12T13:00:48;10.90;82.80
47590;DHT22;33316;52.298;9.056;2022-11-12T13:03:49;11.00;82.90
47590;DHT22;33316;52.298;9.056;2022-11-12T13:06:22;11.00;82.90
47590;DHT22;33316;52.298;9.056;2022-11-12T13:08:53;11.00;83.00
47590;DHT22;33316;52.298;9.056;2022-11-12T13:11:45;11.10;82.90
47590;DHT22;33316;52.298;9.056;2022-11-12T13:17:45;11.10;82.60
47590;DHT22;33316;52.298;9.056;2022-11-12T13:20:35;11.10;82.40
47590;DHT22;33316;52.298;9.056;2022-11-12T13:23:06;11.20;82.20
47590;DHT22;33316;52.298;9.056;2022-11-12T13:25:34;11.20;82.10
47590;DHT22;33316;52.298;9.056;2022-11-12T13:28:09;11.20;82.00
47590;DHT22;33316;52.298;9.056;2022-11-12T13:30:59;11.20;82.00
47590;DHT22;33316;52.298;9.056;2022-11-12T13:33:30;11.20;81.80
47590;DHT22;33316;52.298;9.056;2022-11-12T13:38:44;11.30;81.80
47590;DHT22;33316;52.298;9.056;2022-11-12T13:41:15;11.30;81.40
47590;DHT22;33316;52.298;9.056;2022-11-12T13:43:45;11.30;81.40
47590;DHT22;33316;52.298;9.056;2022-11-12T13:46:26;11.30;81.30
47590;DHT22;33316;52.298;9.056;2022-11-12T13:48:57;11.30;81.60
47590;DHT22;33316;52.298;9.056;2022-11-12T13:51:34;11.30;81.60
47590;DHT22;33316;52.298;9.056;2022-11-12T13:54:23;11.30;81.60
47590;DHT22;33316;52.298;9.056;2022-11-12T13:56:51;11.30;81.50
47590;DHT22;33316;52.298;9.056;2022-11-12T13:59:19;11.30;81.30
47590;DHT22;33316;52.298;9.056;2022-11-12T14:01:47;11.30;81.40
47590;DHT22;33316;52.298;9.056;2022-11-12T14:04:16;11.30;81.40
47590;DHT22;33316;52.298;9.056;2022-11-12T14:06:46;11.30;81.40
47590;DHT22;33316;52.298;9.056;2022-11-12T14:09:29;11.30;81.40
47590;DHT22;33316;52.298;9.056;2022-11-12T14:12:14;11.30;81.60
47590;DHT22;33316;52.298;9.056;2022-11-12T14:15:07;11.30;81.60
47590;DHT22;33316;52.298;9.056;2022-11-12T14:17:42;11.30;81.60
47590;DHT22;33316;52.298;9.056;2022-11-12T14:20:24;11.30;81.70
47590;DHT22;33316;52.298;9.056;2022-11-12T14:22:53;11.20;81.70
47590;DHT22;33316;52.298;9.056;2022-11-12T14:25:23;11.20;81.60
47590;DHT22;33316;52.298;9.056;2022-11-12T14:27:51;11.20;81.70
47590;DHT22;33316;52.298;9.056;2022-11-12T14:30:20;11.20;81.70
47590;DHT22;33316;52.298;9.056;2022-11-12T14:32:50;11.20;81.70
47590;DHT22;33316;52.298;9.056;2022-11-12T14:35:19;11.20;81.70
47590;DHT22;33316;52.298;9.056;2022-11-12T14:37:51;11.20;81.70
47590;DHT22;33316;52.298;9.056;2022-11-12T14:40:22;11.20;81.70
47590;DHT22;33316;52.298;9.056;2022-11-12T14:42:50;11.20;81.70
47590;DHT22;33316;52.298;9.056;2022-11-12T14:45:19;11.20;81.60
47590;DHT22;33316;52.298;9.056;2022-11-12T14:47:48;11.20;81.70
47590;DHT22;33316;52.298;9.056;2022-11-12T14:50:19;11.20;81.70
47590;DHT22;33316;52.298;9.056;2022-11-12T14:52:49;11.10;81.60
47590;DHT22;33316;52.298;9.056;2022-11-12T14:55:21;11.10;81.60
47590;DHT22;33316;52.298;9.056;2022-11-12T14:57:49;11.10;81.60
47590;DHT22;33316;52.298;9.056;2022-11-12T15:00:18;11.10;81.50
47590;DHT22;33316;52.298;9.056;2022-11-12T15:02:46;11.10;81.60
47590;DHT22;33316;52.298;9.056;2022-11-12T15:05:14;11.10;81.60
47590;DHT22;33316;52.298;9.056;2022-11-12T15:07:53;11.00;81.70
47590;DHT22;33316;52.298;9.056;2022-11-12T15:10:36;11.00;81.80
47590;DHT22;33316;52.298;9.056;2022-11-12T15:13:05;11.00;82.00
47590;DHT22;33316;52.298;9.056;2022-11-12T15:15:34;10.90;81.80
47590;DHT22;33316;52.298;9.056;2022-11-12T15:18:06;10.90;82.00
47590;DHT22;33316;52.298;9.056;2022-11-12T15:20:33;10.90;82.10
47590;DHT22;33316;52.298;9.056;2022-11-12T15:23:00;10.80;82.10
47590;DHT22;33316;52.298;9.056;2022-11-12T15:25:29;10.80;82.10
47590;DHT22;33316;52.298;9.056;2022-11-12T15:28:13;10.70;82.10
47590;DHT22;33316;52.298;9.056;2022-11-12T15:30:59;10.70;82.30
47590;DHT22;33316;52.298;9.056;2022-11-12T15:33:26;10.60;82.40
47590;DHT22;33316;52.298;9.056;2022-11-12T15:35:57;10.60;82.50
47590;DHT22;33316;52.298;9.056;2022-11-12T15:38:26;10.50;82.60
47590;DHT22;33316;52.298;9.056;2022-11-12T15:40:57;10.50;82.70
47590;DHT22;33316;52.298;9.056;2022-11-12T15:43:27;10.50;82.70
47590;DHT22;33316;52.298;9.056;2022-11-12T15:45:55;10.40;82.70
47590;DHT22;33316;52.298;9.056;2022-11-12T15:48:22;10.40;82.80
47590;DHT22;33316;52.298;9.056;2022-11-12T15:50:49;10.30;82.80
47590;DHT22;33316;52.298;9.056;2022-11-12T15:53:17;10.30;82.80
47590;DHT22;33316;52.298;9.056;2022-11-12T15:55:44;10.20;82.80
47590;DHT22;33316;52.298;9.056;2022-11-12T15:58:16;10.20;82.80
47590;DHT22;33316;52.298;9.056;2022-11-12T16:00:44;10.20;83.00
47590;DHT22;33316;52.298;9.056;2022-11-12T16:03:14;10.10;82.90
47590;DHT22;33316;52.298;9.056;2022-11-12T16:05:44;10.00;82.90
47590;DHT22;33316;52.298;9.056;2022-11-12T16:08:11;10.00;82.80
47590;DHT22;33316;52.298;9.056;2022-11-12T16:10:38;10.00;82.80